Time;durP1;ratioP1;P1;durP2;ratioP2;P2;SDS_P1;SDS_P2;PMS_P1;PMS_P2;Temp;Humidity;BMP_temperature;BMP_pressure;BME280_temperature;BME280_humidity;BME280_pressure;Samples;Min_cycle;Max_cycle;Signal;HPM_P1;HPM_P2
2022/01/24 04:02:53;;;;;;;3.43;2.10;;;3.90;76.60;;;;;;4954288;29;20549;-76
2022/01/24 04:05:19;;;;;;;3.10;2.17;;;3.90;76.40;;;;;;4955224;28;20443;-76
2022/01/24 04:07:46;;;;;;;4.03;2.10;;;3.90;76.40;;;;;;4955143;28;20447;-75
2022/01/24 04:10:17;;;;;;;2.90;2.00;;;3.90;76.30;;;;;;4955166;28;20514;-75
2022/01/24 04:12:44;;;;;;;3.23;2.37;;;3.90;76.30;;;;;;4974164;28;20497;-75
2022/01/24 04:15:27;;;;;;;3.20;2.33;;;3.90;76.30;;;;;;5110209;23;20519;-78
2022/01/24 04:18:24;;;;;;;3.07;2.10;;;3.90;76.40;;;;;;4999828;28;20433;-79
2022/01/24 04:23:38;;;;;;;3.07;2.20;;;3.90;76.40;;;;;;5001174;28;20405;-79
2022/01/24 04:26:05;;;;;;;3.43;2.30;;;3.90;76.50;;;;;;5000909;28;20496;-79
2022/01/24 04:28:31;;;;;;;3.20;2.40;;;3.80;76.40;;;;;;5001187;28;20445;-79
2022/01/24 04:30:58;;;;;;;3.27;2.17;;;3.80;76.20;;;;;;5000593;28;20449;-79
2022/01/24 04:33:26;;;;;;;3.60;2.40;;;3.80;76.70;;;;;;5000379;28;20451;-79
2022/01/24 04:35:53;;;;;;;3.10;2.27;;;3.80;76.70;;;;;;4998823;28;20492;-79
2022/01/24 04:38:19;;;;;;;3.60;2.93;;;3.80;76.60;;;;;;4998275;28;20471;-79
2022/01/24 04:40:46;;;;;;;3.20;2.63;;;3.80;76.30;;;;;;4998615;28;20453;-79
2022/01/24 04:43:29;;;;;;;3.40;2.20;;;3.80;76.60;;;;;;4998360;28;20993;-79
2022/01/24 04:46:07;;;;;;;3.93;2.80;;;3.80;76.30;;;;;;4998281;28;20500;-79
2022/01/24 04:51:33;;;;;;;3.20;2.33;;;3.80;76.60;;;;;;4998911;28;20425;-79
2022/01/24 04:56:44;;;;;;;3.23;2.33;;;3.80;76.50;;;;;;4999594;28;20840;-79
2022/01/24 04:59:11;;;;;;;3.10;2.10;;;3.80;76.30;;;;;;4998498;28;20445;-79
2022/01/24 05:01:38;;;;;;;3.10;2.40;;;3.70;76.50;;;;;;4998199;28;20460;-79
2022/01/24 05:04:06;;;;;;;3.00;2.40;;;3.70;76.60;;;;;;4997697;28;20461;-79
2022/01/24 05:06:33;;;;;;;3.47;2.47;;;3.70;77.00;;;;;;4997686;28;20453;-79
2022/01/24 05:09:00;;;;;;;3.87;2.50;;;3.70;77.00;;;;;;4998761;28;20459;-79
2022/01/24 05:11:36;;;;;;;3.53;2.57;;;3.70;76.90;;;;;;4998107;28;20453;-79
2022/01/24 05:25:01;;;;;;;3.80;2.87;;;3.70;76.50;;;;;;5002205;28;20507;-79
2022/01/24 05:27:28;;;;;;;3.50;2.90;;;3.70;76.50;;;;;;5001724;28;20499;-79
2022/01/24 05:29:55;;;;;;;3.50;2.37;;;3.70;76.50;;;;;;5000785;28;20459;-79
2022/01/24 05:32:22;;;;;;;3.27;2.70;;;3.60;76.80;;;;;;5000867;28;20457;-79
2022/01/24 05:34:50;;;;;;;3.97;2.90;;;3.60;76.80;;;;;;4999819;28;20519;-79
2022/01/24 05:37:16;;;;;;;3.60;2.67;;;3.60;76.90;;;;;;5000209;28;20457;-79
2022/01/24 05:39:43;;;;;;;3.70;3.30;;;3.60;76.90;;;;;;4999712;28;20449;-79
2022/01/24 05:42:10;;;;;;;3.37;2.27;;;3.60;77.00;;;;;;5001037;28;20515;-79
2022/01/24 05:44:36;;;;;;;3.37;2.80;;;3.60;77.10;;;;;;5000286;28;21115;-79
2022/01/24 05:47:03;;;;;;;3.60;3.00;;;3.60;77.20;;;;;;4998724;28;20862;-79
2022/01/24 05:49:30;;;;;;;3.53;2.57;;;3.60;77.20;;;;;;4999171;28;20449;-79
2022/01/24 05:51:58;;;;;;;3.73;2.50;;;3.60;77.20;;;;;;5000228;28;20445;-79
2022/01/24 05:54:25;;;;;;;3.27;2.60;;;3.60;77.40;;;;;;4999625;28;20524;-79
2022/01/24 05:56:51;;;;;;;3.60;2.70;;;3.60;77.40;;;;;;4998955;28;20445;-79
2022/01/24 05:59:18;;;;;;;3.47;2.43;;;3.60;77.20;;;;;;4997952;28;21007;-79
2022/01/24 06:01:45;;;;;;;3.27;2.40;;;3.60;77.40;;;;;;4998425;28;20496;-79
2022/01/24 06:04:11;;;;;;;3.70;2.80;;;3.60;77.40;;;;;;4998371;28;20469;-79
2022/01/24 06:06:38;;;;;;;3.13;2.50;;;3.60;77.50;;;;;;4998067;28;20940;-79
2022/01/24 06:09:06;;;;;;;3.27;2.60;;;3.60;77.60;;;;;;4998381;28;20793;-79
2022/01/24 06:11:34;;;;;;;3.87;3.20;;;3.60;77.90;;;;;;4998114;28;20453;-79
2022/01/24 06:14:02;;;;;;;4.00;3.30;;;3.50;78.10;;;;;;4997710;28;20557;-79
2022/01/24 06:16:29;;;;;;;3.70;3.03;;;3.50;78.40;;;;;;4997708;28;20473;-79
2022/01/24 06:18:56;;;;;;;3.93;3.07;;;3.50;78.50;;;;;;4997573;28;20452;-79
2022/01/24 06:21:22;;;;;;;3.20;2.40;;;3.60;78.30;;;;;;4998496;28;20453;-79
2022/01/24 06:23:49;;;;;;;3.10;2.17;;;3.60;78.00;;;;;;4998814;28;20457;-79
2022/01/24 06:26:17;;;;;;;3.80;3.00;;;3.60;77.80;;;;;;4999065;28;20518;-79
2022/01/24 06:28:44;;;;;;;3.53;2.43;;;3.50;78.00;;;;;;4999215;28;20450;-79
2022/01/24 06:31:10;;;;;;;3.33;2.63;;;3.50;77.80;;;;;;4999147;28;20499;-79
2022/01/24 06:33:37;;;;;;;3.43;2.83;;;3.60;77.80;;;;;;4999087;28;20457;-79
2022/01/24 06:36:05;;;;;;;3.33;2.73;;;3.60;77.60;;;;;;4998753;28;20485;-79
2022/01/24 06:38:31;;;;;;;3.10;2.33;;;3.60;77.60;;;;;;4999115;28;20457;-79
2022/01/24 06:40:58;;;;;;;3.53;2.80;;;3.60;77.40;;;;;;5001388;28;20449;-79
2022/01/24 06:43:26;;;;;;;3.20;2.47;;;3.60;77.30;;;;;;4998934;28;20445;-79
2022/01/24 06:45:53;;;;;;;3.50;2.70;;;3.60;77.00;;;;;;4999384;28;20465;-79
2022/01/24 06:48:20;;;;;;;4.10;2.43;;;3.60;77.20;;;;;;4998168;28;20543;-79
2022/01/24 06:50:46;;;;;;;3.30;2.80;;;3.60;77.30;;;;;;4998737;28;20441;-79
2022/01/24 06:53:13;;;;;;;3.70;3.20;;;3.50;77.30;;;;;;5001169;28;20937;-79
2022/01/24 06:55:40;;;;;;;3.73;3.00;;;3.40;77.60;;;;;;4999089;28;20489;-79
2022/01/24 06:58:06;;;;;;;3.40;3.07;;;3.40;77.70;;;;;;4998125;28;20452;-80
2022/01/24 07:00:35;;;;;;;3.83;2.80;;;3.40;77.50;;;;;;4998502;28;20499;-79
2022/01/24 07:03:02;;;;;;;3.80;2.97;;;3.40;77.70;;;;;;4999082;28;20876;-79
2022/01/24 07:05:29;;;;;;;3.67;2.67;;;3.40;77.80;;;;;;5002645;28;20492;-78
2022/01/24 07:07:57;;;;;;;3.50;2.80;;;3.50;77.50;;;;;;5002508;28;20457;-79
2022/01/24 07:10:25;;;;;;;3.80;2.90;;;3.50;77.40;;;;;;5003585;28;20449;-80
2022/01/24 07:12:52;;;;;;;3.70;3.17;;;3.50;77.50;;;;;;5003339;28;20457;-79
2022/01/24 07:15:21;;;;;;;3.43;3.00;;;3.60;77.40;;;;;;5001845;28;20509;-79
2022/01/24 07:20:35;;;;;;;4.53;3.00;;;3.60;77.50;;;;;;5003341;28;20480;-79
2022/01/24 07:23:02;;;;;;;3.73;3.00;;;3.60;77.40;;;;;;5003060;28;20968;-79
2022/01/24 07:25:29;;;;;;;3.50;2.77;;;3.60;77.50;;;;;;5002997;28;20457;-79
2022/01/24 07:27:55;;;;;;;3.70;3.00;;;3.50;77.70;;;;;;5003641;28;20511;-79
2022/01/24 07:30:22;;;;;;;4.47;3.40;;;3.60;77.60;;;;;;5000304;28;20453;-79
2022/01/24 07:32:51;;;;;;;3.40;3.00;;;3.60;77.50;;;;;;5003920;28;20441;-81
2022/01/24 07:35:18;;;;;;;3.73;3.17;;;3.60;77.70;;;;;;5000615;28;20540;-76
2022/01/24 07:37:45;;;;;;;3.70;3.17;;;3.60;77.80;;;;;;4995923;28;20500;-77
2022/01/24 07:40:13;;;;;;;3.70;3.00;;;3.60;77.90;;;;;;5002116;28;20453;-79
2022/01/24 07:45:25;;;;;;;3.50;3.00;;;3.70;78.30;;;;;;4995757;28;20897;-78
2022/01/24 07:47:54;;;;;;;3.97;3.57;;;3.70;78.60;;;;;;4995374;28;20460;-78
2022/01/24 07:50:23;;;;;;;3.70;3.07;;;3.80;78.60;;;;;;4995428;28;20492;-78
2022/01/24 07:52:50;;;;;;;4.13;3.07;;;3.90;78.50;;;;;;4994804;28;20453;-78
2022/01/24 07:55:17;;;;;;;3.47;2.90;;;3.80;78.80;;;;;;4994523;28;20996;-78
2022/01/24 07:57:43;;;;;;;3.30;2.70;;;3.90;79.00;;;;;;4994894;28;20457;-77
2022/01/24 08:00:12;;;;;;;4.30;3.47;;;4.00;78.80;;;;;;4994732;28;20449;-77
2022/01/24 08:02:39;;;;;;;3.37;2.87;;;4.10;78.50;;;;;;4994644;28;20812;-78
2022/01/24 08:05:08;;;;;;;4.67;4.10;;;4.20;78.50;;;;;;4994716;28;20543;-78
2022/01/24 08:07:35;;;;;;;3.80;3.43;;;4.20;78.40;;;;;;4994574;28;20456;-78
2022/01/24 08:10:01;;;;;;;3.53;2.90;;;4.20;78.20;;;;;;4995300;28;20457;-78
2022/01/24 08:12:28;;;;;;;4.47;3.23;;;4.30;78.10;;;;;;4994394;28;20508;-78
2022/01/24 08:14:55;;;;;;;3.93;3.53;;;4.40;77.90;;;;;;4994063;28;20875;-78
2022/01/24 08:17:22;;;;;;;3.80;3.10;;;4.40;77.60;;;;;;4994447;28;20941;-78
2022/01/24 08:19:50;;;;;;;3.80;3.10;;;4.50;77.40;;;;;;4994337;28;20898;-78
2022/01/24 08:22:18;;;;;;;5.50;3.37;;;4.60;77.40;;;;;;4994459;28;20487;-78
2022/01/24 08:24:45;;;;;;;4.10;3.27;;;4.10;77.70;;;;;;4994613;28;20501;-78
2022/01/24 08:27:15;;;;;;;4.10;3.20;;;4.10;78.30;;;;;;4994874;28;20445;-78
2022/01/24 08:29:43;;;;;;;3.70;3.07;;;3.90;78.50;;;;;;4994473;28;20454;-78
2022/01/24 08:32:10;;;;;;;4.00;3.60;;;4.00;78.80;;;;;;4994330;28;20453;-78
2022/01/24 08:34:37;;;;;;;3.73;3.30;;;4.10;78.70;;;;;;4994122;28;20469;-78
2022/01/24 08:37:05;;;;;;;3.80;3.20;;;4.00;78.30;;;;;;4995377;28;20461;-77
2022/01/24 08:39:33;;;;;;;3.50;2.80;;;4.00;79.20;;;;;;5003101;28;20516;-78
2022/01/24 08:42:10;;;;;;;3.57;3.10;;;3.40;80.50;;;;;;5007919;28;20453;-77
2022/01/24 08:47:17;;;;;;;3.70;3.30;;;3.30;81.90;;;;;;4999772;28;20448;-77
2022/01/24 08:49:44;;;;;;;5.07;3.50;;;3.10;82.20;;;;;;4996178;28;20449;-77
2022/01/24 08:52:10;;;;;;;3.53;3.07;;;2.90;83.10;;;;;;4994323;28;20449;-78
2022/01/24 08:54:38;;;;;;;3.90;3.47;;;3.00;83.40;;;;;;4996291;28;20889;-77
2022/01/24 08:57:06;;;;;;;3.63;3.23;;;3.20;82.90;;;;;;4998455;28;20457;-78
2022/01/24 08:59:33;;;;;;;3.70;3.40;;;3.30;82.70;;;;;;4997936;28;20449;-78
2022/01/24 09:02:00;;;;;;;4.20;3.80;;;3.40;82.30;;;;;;4998199;28;20456;-77
2022/01/24 09:04:26;;;;;;;3.77;3.37;;;3.50;82.60;;;;;;4997826;28;20465;-77
2022/01/24 09:06:53;;;;;;;4.37;3.97;;;3.80;81.60;;;;;;4997413;28;20479;-77
2022/01/24 09:09:20;;;;;;;3.90;3.47;;;3.90;81.00;;;;;;4997604;28;20453;-78
2022/01/24 09:11:48;;;;;;;4.40;4.00;;;4.00;81.60;;;;;;4997460;28;20451;-77
2022/01/24 09:14:15;;;;;;;3.70;3.30;;;4.30;80.30;;;;;;5001852;28;20985;-78
2022/01/24 09:16:41;;;;;;;4.03;3.60;;;4.60;79.90;;;;;;5010096;28;20469;-76
2022/01/24 09:19:08;;;;;;;3.73;3.40;;;4.70;79.10;;;;;;5022487;28;20426;-76
2022/01/24 09:21:35;;;;;;;3.37;2.90;;;5.00;78.40;;;;;;5012462;28;20444;-79
2022/01/24 09:24:02;;;;;;;3.53;3.00;;;4.70;78.10;;;;;;4999027;28;20480;-78
2022/01/24 09:26:29;;;;;;;3.63;3.23;;;4.70;78.30;;;;;;4997995;28;20449;-78
2022/01/24 09:28:57;;;;;;;3.80;3.37;;;4.70;78.60;;;;;;4998150;28;20511;-78
2022/01/24 09:31:24;;;;;;;3.40;3.00;;;4.70;78.10;;;;;;4998426;28;20449;-78
2022/01/24 09:33:52;;;;;;;3.60;2.93;;;4.60;78.30;;;;;;5007103;28;20484;-77
2022/01/24 09:36:19;;;;;;;3.60;2.77;;;4.60;78.40;;;;;;5004388;28;20911;-77
2022/01/24 09:38:46;;;;;;;3.50;3.00;;;4.60;78.50;;;;;;4998073;28;20441;-78
2022/01/24 09:41:13;;;;;;;3.57;2.87;;;4.70;78.90;;;;;;4997796;28;20448;-77
2022/01/24 09:43:40;;;;;;;3.50;2.80;;;4.60;79.20;;;;;;4996826;28;21011;-78
2022/01/24 09:46:08;;;;;;;3.50;2.87;;;4.70;79.70;;;;;;4996606;28;20939;-77
2022/01/24 09:48:38;;;;;;;3.37;2.60;;;4.90;78.50;;;;;;4996824;28;20539;-77
2022/01/24 09:51:05;;;;;;;3.80;3.30;;;4.90;78.20;;;;;;4996669;28;20548;-78
2022/01/24 09:53:33;;;;;;;3.50;2.80;;;4.90;78.10;;;;;;4996539;28;20453;-77
2022/01/24 09:56:03;;;;;;;3.17;2.40;;;4.70;78.00;;;;;;4996492;28;20496;-77
2022/01/24 09:58:31;;;;;;;3.30;2.40;;;4.90;78.30;;;;;;4996598;28;20862;-77
2022/01/24 10:00:58;;;;;;;3.03;2.10;;;4.80;77.80;;;;;;4996585;28;20445;-78
2022/01/24 10:03:27;;;;;;;3.63;2.50;;;4.80;78.80;;;;;;4996595;28;20536;-77
2022/01/24 10:05:56;;;;;;;3.33;2.50;;;4.80;78.20;;;;;;4996028;28;20473;-78
2022/01/24 10:08:24;;;;;;;3.20;2.30;;;4.90;77.70;;;;;;4996647;28;20477;-78
2022/01/24 10:10:53;;;;;;;3.57;2.90;;;5.10;77.90;;;;;;4996397;28;20867;-77
2022/01/24 10:16:31;;;;;;;3.37;2.50;;;5.30;76.90;;;;;;4997358;28;20611;-78
2022/01/24 10:19:12;;;;;;;3.60;2.67;;;5.30;76.80;;;;;;4996025;28;20524;-78
2022/01/24 10:21:41;;;;;;;3.00;2.37;;;5.50;77.10;;;;;;4996298;28;20433;-77
2022/01/24 10:24:07;;;;;;;3.30;2.80;;;5.50;76.90;;;;;;4995930;28;20965;-78
2022/01/24 10:26:34;;;;;;;3.03;2.43;;;5.50;75.90;;;;;;4996099;28;20461;-78
2022/01/24 10:29:01;;;;;;;3.20;1.87;;;5.50;76.00;;;;;;4996039;28;20499;-78
2022/01/24 10:31:29;;;;;;;3.10;2.23;;;5.60;76.00;;;;;;4996212;28;20453;-79
2022/01/24 10:34:03;;;;;;;3.20;2.50;;;5.60;75.20;;;;;;4996109;28;20499;-78
2022/01/24 10:36:40;;;;;;;3.20;2.23;;;5.70;75.20;;;;;;4995938;28;20563;-78
2022/01/24 10:39:28;;;;;;;3.03;2.40;;;5.60;74.60;;;;;;4995626;28;20920;-76
2022/01/24 10:42:52;;;;;;;3.03;2.43;;;5.50;75.40;;;;;;4995554;28;20905;-78
2022/01/24 10:45:22;;;;;;;3.33;2.40;;;5.50;75.50;;;;;;4995849;28;20477;-78
2022/01/24 10:47:52;;;;;;;3.00;2.10;;;5.60;75.20;;;;;;4995844;28;20560;-77
2022/01/24 10:50:24;;;;;;;3.10;2.20;;;5.50;75.70;;;;;;4995786;28;20434;-77
2022/01/24 10:52:53;;;;;;;2.80;2.00;;;5.60;75.80;;;;;;4995745;28;20802;-78
2022/01/24 10:55:21;;;;;;;3.00;2.03;;;5.60;75.90;;;;;;4995513;28;20523;-77
2022/01/24 10:58:13;;;;;;;3.00;1.80;;;5.80;74.70;;;;;;4995672;28;20437;-79
2022/01/24 11:00:41;;;;;;;2.77;2.00;;;5.80;74.90;;;;;;4995219;28;20536;-77
2022/01/24 11:03:14;;;;;;;3.00;2.20;;;5.80;75.40;;;;;;4995363;28;20464;-77
2022/01/24 11:05:43;;;;;;;3.00;1.97;;;5.80;74.00;;;;;;4995833;28;20511;-78
2022/01/24 11:08:21;;;;;;;3.00;2.27;;;6.00;74.50;;;;;;4995448;28;20980;-77
2022/01/24 11:10:49;;;;;;;3.20;2.47;;;6.00;73.80;;;;;;4997077;28;20956;-77
2022/01/24 11:13:19;;;;;;;2.67;1.80;;;6.00;73.60;;;;;;4996416;28;20445;-77
2022/01/24 11:15:55;;;;;;;3.13;2.13;;;6.10;73.70;;;;;;4995096;28;20500;-76
2022/01/24 11:18:25;;;;;;;3.23;2.50;;;6.10;73.10;;;;;;4995284;28;20460;-79
2022/01/24 11:21:01;;;;;;;3.40;2.30;;;6.00;73.30;;;;;;4995262;28;20449;-76
2022/01/24 11:23:30;;;;;;;2.90;2.00;;;5.90;74.20;;;;;;4995328;28;20672;-76
2022/01/24 11:25:58;;;;;;;3.40;2.80;;;5.70;74.50;;;;;;4994963;28;20472;-76
2022/01/24 11:28:25;;;;;;;3.10;2.27;;;5.80;74.30;;;;;;4994979;28;20540;-76
2022/01/24 11:30:58;;;;;;;2.80;2.03;;;5.80;74.80;;;;;;4994795;28;20461;-76
2022/01/24 11:33:35;;;;;;;3.17;2.77;;;5.80;74.60;;;;;;4994850;28;20487;-76
2022/01/24 11:36:03;;;;;;;2.63;1.70;;;5.90;75.10;;;;;;4994653;28;20491;-76
2022/01/24 11:38:35;;;;;;;2.93;2.20;;;6.00;74.00;;;;;;4994825;28;20449;-77
2022/01/24 11:41:05;;;;;;;3.83;1.87;;;6.00;74.40;;;;;;4994614;28;20474;-76
2022/01/24 11:43:35;;;;;;;2.77;1.77;;;5.80;74.20;;;;;;4994596;28;20507;-76
2022/01/24 11:46:07;;;;;;;2.83;2.20;;;5.90;74.50;;;;;;4994187;28;20995;-76
2022/01/24 11:48:35;;;;;;;3.00;2.17;;;5.90;74.80;;;;;;4994225;28;20901;-77
2022/01/24 11:51:07;;;;;;;2.73;1.70;;;6.20;74.90;;;;;;4994497;28;20441;-76
2022/01/24 11:53:41;;;;;;;2.90;1.70;;;6.30;73.80;;;;;;4994526;28;20524;-77
2022/01/24 11:56:21;;;;;;;3.40;2.10;;;6.60;73.40;;;;;;4994371;28;20473;-77
2022/01/24 11:58:48;;;;;;;2.60;1.60;;;6.60;72.80;;;;;;4994882;28;20484;-77
2022/01/24 12:01:33;;;;;;;3.00;1.80;;;6.70;72.80;;;;;;4994793;28;20480;-76
2022/01/24 12:04:00;;;;;;;2.60;1.70;;;6.80;71.30;;;;;;4996509;28;20416;-76
2022/01/24 12:06:27;;;;;;;3.37;2.03;;;6.70;71.60;;;;;;4996199;28;20449;-76
2022/01/24 12:09:05;;;;;;;2.77;1.80;;;6.90;72.30;;;;;;4995409;28;20445;-77
2022/01/24 12:11:35;;;;;;;2.90;1.90;;;7.10;72.00;;;;;;4995607;28;20437;-76
2022/01/24 12:14:13;;;;;;;3.13;1.77;;;7.10;70.60;;;;;;4995524;28;20480;-77
2022/01/24 12:16:45;;;;;;;2.63;1.70;;;7.10;70.50;;;;;;4995178;28;20520;-77
2022/01/24 12:19:12;;;;;;;2.57;1.47;;;7.30;70.80;;;;;;4997151;28;20442;-77
2022/01/24 12:21:41;;;;;;;2.73;1.60;;;7.70;68.20;;;;;;4996421;28;20460;-75
2022/01/24 12:24:11;;;;;;;2.77;1.70;;;8.30;67.70;;;;;;4995274;28;20496;-76
2022/01/24 12:26:41;;;;;;;2.70;1.57;;;9.00;65.80;;;;;;4995518;28;20448;-76
2022/01/24 12:29:10;;;;;;;2.60;1.50;;;9.70;64.90;;;;;;5000243;28;20453;-77
2022/01/24 12:31:45;;;;;;;2.40;1.20;;;10.00;61.90;;;;;;5002543;28;20456;-77
2022/01/24 12:34:38;;;;;;;2.47;1.20;;;11.20;60.40;;;;;;5001891;28;20827;-76
2022/01/24 12:37:10;;;;;;;2.80;1.43;;;13.70;54.00;;;;;;5001730;28;20480;-79
2022/01/24 12:39:51;;;;;;;2.50;1.43;;;15.90;49.50;;;;;;5004066;28;20465;-78
2022/01/24 12:42:31;;;;;;;2.83;1.30;;;18.20;45.80;;;;;;5005017;28;20433;-78
2022/01/24 12:47:43;;;;;;;2.50;1.30;;;20.60;40.10;;;;;;5003887;28;20428;-78
2022/01/24 12:50:10;;;;;;;2.60;1.60;;;22.00;39.70;;;;;;5003911;28;20460;-77
2022/01/24 12:52:39;;;;;;;2.60;1.60;;;22.30;37.80;;;;;;5004129;28;20453;-77
2022/01/24 12:55:09;;;;;;;2.50;1.30;;;22.90;37.40;;;;;;5004081;28;20469;-78
2022/01/24 12:57:42;;;;;;;2.80;1.40;;;23.70;35.60;;;;;;5004745;28;20481;-78
2022/01/24 13:00:11;;;;;;;2.47;1.10;;;22.90;36.10;;;;;;5004991;28;20513;-78
2022/01/24 13:02:39;;;;;;;2.80;1.63;;;22.70;36.60;;;;;;5004424;28;20455;-77
2022/01/24 13:05:08;;;;;;;2.40;1.20;;;23.10;35.80;;;;;;5005351;28;20480;-78
2022/01/24 13:07:36;;;;;;;2.50;1.20;;;22.40;36.10;;;;;;5005131;28;20963;-78
2022/01/24 13:10:11;;;;;;;2.70;1.30;;;22.80;36.80;;;;;;5004734;28;20476;-77
2022/01/24 13:12:38;;;;;;;2.30;1.03;;;24.30;34.80;;;;;;5005878;28;20459;-78
2022/01/24 13:15:19;;;;;;;2.40;1.13;;;24.40;34.40;;;;;;5006220;28;20579;-79
2022/01/24 13:21:07;;;;;;;2.60;1.43;;;26.40;31.60;;;;;;5000826;28;20818;-77
2022/01/24 13:23:34;;;;;;;2.40;1.20;;;26.40;31.90;;;;;;5000064;28;20802;-77
2022/01/24 13:26:07;;;;;;;2.60;1.23;;;25.50;32.30;;;;;;5000121;28;20469;-78
2022/01/24 13:28:33;;;;;;;3.50;1.20;;;26.10;32.50;;;;;;5000192;28;20523;-78
2022/01/24 13:31:02;;;;;;;2.70;1.67;;;27.10;30.80;;;;;;4999882;28;20877;-78
2022/01/24 13:33:30;;;;;;;2.60;1.30;;;27.00;30.90;;;;;;4999849;28;20972;-78
2022/01/24 13:35:59;;;;;;;2.47;1.10;;;28.00;30.70;;;;;;4999969;28;20550;-77
2022/01/24 13:38:28;;;;;;;2.70;1.43;;;29.20;28.60;;;;;;5000168;28;20456;-77
2022/01/24 13:40:58;;;;;;;2.40;1.10;;;28.70;29.90;;;;;;4996620;28;20791;-78
2022/01/24 13:43:36;;;;;;;2.57;1.20;;;29.40;29.30;;;;;;4996784;28;20444;-79
2022/01/24 13:46:05;;;;;;;2.60;1.23;;;29.30;28.60;;;;;;4997094;28;20987;-79
2022/01/24 13:48:43;;;;;;;2.50;1.20;;;28.90;29.90;;;;;;4997211;28;20465;-78
2022/01/24 13:51:10;;;;;;;2.80;1.10;;;30.10;28.70;;;;;;4997832;28;20479;-79
2022/01/24 13:53:39;;;;;;;2.60;1.30;;;31.30;27.00;;;;;;4996948;28;20449;-78
2022/01/24 13:56:26;;;;;;;2.30;1.07;;;30.80;27.30;;;;;;4996935;28;20474;-78
2022/01/24 13:59:07;;;;;;;2.37;1.10;;;29.30;28.30;;;;;;4997686;28;20434;-79
2022/01/24 14:01:35;;;;;;;2.40;1.20;;;29.70;28.10;;;;;;4997303;28;20865;-78
2022/01/24 14:04:04;;;;;;;2.80;1.10;;;30.00;28.50;;;;;;4996254;28;20473;-78
2022/01/24 14:06:32;;;;;;;2.40;1.00;;;30.60;27.30;;;;;;4996819;28;20453;-78
2022/01/24 14:09:10;;;;;;;3.10;0.90;;;31.40;27.10;;;;;;4996579;28;20536;-78
2022/01/24 14:11:41;;;;;;;2.63;1.27;;;31.70;25.80;;;;;;4997211;28;20434;-78
2022/01/24 14:14:13;;;;;;;2.80;1.20;;;30.40;27.10;;;;;;4996593;28;20475;-78
2022/01/24 14:16:47;;;;;;;2.30;0.90;;;29.80;27.50;;;;;;4996368;28;20499;-78
2022/01/24 14:19:14;;;;;;;2.50;1.20;;;29.00;28.40;;;;;;4997771;28;20441;-78
2022/01/24 14:21:41;;;;;;;2.70;1.10;;;28.30;28.70;;;;;;4996224;28;20470;-78
2022/01/24 14:24:08;;;;;;;2.43;1.10;;;27.00;30.10;;;;;;4996229;28;20465;-78
2022/01/24 14:26:46;;;;;;;2.50;1.10;;;26.40;30.90;;;;;;4996095;28;20493;-78
2022/01/24 14:29:17;;;;;;;3.70;1.30;;;26.10;31.30;;;;;;4996835;28;20533;-78
2022/01/24 14:31:47;;;;;;;3.10;1.53;;;26.50;30.90;;;;;;4996270;28;20438;-77
2022/01/24 14:34:17;;;;;;;3.53;1.20;;;26.60;30.70;;;;;;4995875;28;20472;-77
2022/01/24 14:36:54;;;;;;;2.50;1.20;;;26.70;30.80;;;;;;4995940;28;20571;-77
2022/01/24 14:39:23;;;;;;;2.50;1.20;;;26.70;30.70;;;;;;4995989;28;20784;-77
2022/01/24 14:41:50;;;;;;;3.20;1.40;;;26.30;31.00;;;;;;4995617;28;20821;-77
2022/01/24 14:47:06;;;;;;;2.60;1.30;;;24.10;33.60;;;;;;4996345;28;20521;-77
2022/01/24 14:49:36;;;;;;;2.67;1.10;;;23.40;34.40;;;;;;4995929;28;21002;-77
2022/01/24 14:52:06;;;;;;;3.30;1.87;;;22.40;35.60;;;;;;4997020;28;20464;-77
2022/01/24 14:54:35;;;;;;;2.80;1.20;;;20.90;37.40;;;;;;4999716;28;20513;-76
2022/01/24 14:57:03;;;;;;;2.40;1.00;;;18.50;40.80;;;;;;4999420;28;20508;-76
2022/01/24 14:59:32;;;;;;;3.30;1.30;;;17.20;43.20;;;;;;4995821;28;20480;-76
2022/01/24 15:02:00;;;;;;;2.77;1.30;;;15.90;45.70;;;;;;4996089;28;20460;-76
2022/01/24 15:04:26;;;;;;;2.70;1.40;;;14.40;48.30;;;;;;4995851;28;20473;-76
2022/01/24 15:06:54;;;;;;;2.57;1.27;;;13.50;50.60;;;;;;4995749;28;20445;-76
2022/01/24 15:09:22;;;;;;;2.67;1.10;;;13.50;50.90;;;;;;4995440;28;20512;-76
2022/01/24 15:11:50;;;;;;;4.03;1.37;;;12.80;52.50;;;;;;4995579;28;20445;-76
2022/01/24 15:14:22;;;;;;;2.70;1.40;;;12.20;54.00;;;;;;4995157;28;20563;-77
2022/01/24 15:16:57;;;;;;;3.20;1.60;;;11.90;54.70;;;;;;4994668;28;20489;-76
2022/01/24 15:27:38;;;;;;;2.63;1.30;;;10.30;59.20;;;;;;4995022;28;20405;-76
2022/01/24 15:30:07;;;;;;;2.70;1.40;;;10.30;59.50;;;;;;4994885;28;20569;-77
2022/01/24 15:32:35;;;;;;;2.90;1.30;;;10.00;60.00;;;;;;4994984;28;20960;-76
2022/01/24 15:35:02;;;;;;;2.73;1.50;;;9.80;60.60;;;;;;4994932;28;20465;-77
2022/01/24 15:37:29;;;;;;;2.83;1.30;;;9.80;61.00;;;;;;4994885;28;20489;-76
2022/01/24 15:39:56;;;;;;;2.97;1.37;;;9.40;62.10;;;;;;4995040;28;20479;-77
2022/01/24 15:42:36;;;;;;;2.80;1.20;;;9.10;63.30;;;;;;4995128;28;20452;-77
2022/01/24 15:47:56;;;;;;;2.90;1.40;;;8.80;64.30;;;;;;4980242;28;20836;-78
2022/01/24 15:50:24;;;;;;;2.60;1.50;;;8.80;64.50;;;;;;4995334;28;20533;-77
2022/01/24 15:52:51;;;;;;;2.90;1.40;;;8.90;64.40;;;;;;4994851;28;20452;-77
2022/01/24 15:55:22;;;;;;;3.23;1.60;;;8.80;64.70;;;;;;4995544;28;20468;-77
2022/01/24 15:57:49;;;;;;;3.00;1.40;;;8.50;65.60;;;;;;4994622;28;20473;-77
2022/01/24 16:00:18;;;;;;;2.80;1.50;;;8.60;65.40;;;;;;4994801;28;20453;-77
2022/01/24 16:02:47;;;;;;;3.03;1.40;;;8.70;65.20;;;;;;4994467;28;20581;-77
2022/01/24 16:05:19;;;;;;;3.20;1.80;;;8.70;65.20;;;;;;4994661;28;20987;-77
2022/01/24 16:07:46;;;;;;;3.10;1.43;;;8.70;65.10;;;;;;4994859;28;20464;-77
2022/01/24 16:10:15;;;;;;;2.83;1.60;;;8.70;65.20;;;;;;4994779;28;20531;-77
2022/01/24 16:12:44;;;;;;;3.80;1.67;;;8.80;65.10;;;;;;4995120;28;20477;-77
2022/01/24 16:15:12;;;;;;;3.57;1.77;;;8.90;65.00;;;;;;4994502;28;20499;-77
2022/01/24 16:17:40;;;;;;;3.50;1.77;;;9.00;64.90;;;;;;4994074;28;20999;-76
2022/01/24 16:20:20;;;;;;;3.13;1.93;;;9.00;64.90;;;;;;4994163;28;20870;-77
2022/01/24 16:23:01;;;;;;;2.83;1.63;;;9.00;64.80;;;;;;4994345;28;20456;-77
2022/01/24 16:25:37;;;;;;;3.10;1.83;;;9.00;65.00;;;;;;4994793;28;20484;-76
2022/01/24 16:28:07;;;;;;;3.57;1.70;;;8.90;65.00;;;;;;4994333;28;20437;-76
2022/01/24 16:30:34;;;;;;;4.47;1.90;;;8.80;65.20;;;;;;4994178;28;20464;-76
2022/01/24 16:33:02;;;;;;;3.43;1.83;;;8.80;65.40;;;;;;4994513;28;20448;-76
2022/01/24 16:35:30;;;;;;;3.00;1.80;;;8.80;65.40;;;;;;4993901;28;21047;-75
2022/01/24 16:37:59;;;;;;;2.90;1.70;;;8.70;65.70;;;;;;4994104;28;20992;-75
2022/01/24 16:40:31;;;;;;;3.17;1.60;;;8.60;65.90;;;;;;4994060;28;20929;-75
2022/01/24 16:48:37;;;;;;;2.70;1.70;;;8.40;66.20;;;;;;4994204;28;20393;-75
2022/01/24 16:51:06;;;;;;;3.10;1.90;;;8.40;66.40;;;;;;4993936;28;20453;-76
2022/01/24 16:53:35;;;;;;;3.40;1.60;;;8.30;66.60;;;;;;4994003;28;20446;-76
2022/01/24 16:56:01;;;;;;;3.30;1.93;;;8.20;67.00;;;;;;4993829;28;20501;-75
2022/01/24 16:58:30;;;;;;;4.20;1.60;;;8.10;67.10;;;;;;4994333;28;20477;-75
2022/01/24 17:00:57;;;;;;;3.83;2.03;;;8.10;67.30;;;;;;4994858;28;21008;-76
2022/01/24 17:03:24;;;;;;;3.00;1.90;;;8.10;67.40;;;;;;4994141;28;20476;-76
2022/01/24 17:05:51;;;;;;;4.33;2.07;;;8.00;67.60;;;;;;4993971;28;20469;-76
2022/01/24 17:08:19;;;;;;;3.30;2.20;;;8.00;67.70;;;;;;4994396;28;20445;-76
2022/01/24 17:10:48;;;;;;;3.90;2.20;;;7.90;67.80;;;;;;4994196;28;20445;-77
2022/01/24 17:13:17;;;;;;;4.67;2.20;;;7.90;67.90;;;;;;4993866;28;20507;-76
2022/01/24 17:15:47;;;;;;;4.50;2.40;;;7.80;68.10;;;;;;4995045;28;20485;-77
2022/01/24 17:18:15;;;;;;;3.00;1.70;;;7.80;68.10;;;;;;4997904;28;20477;-76
2022/01/24 17:20:43;;;;;;;3.40;1.90;;;7.80;68.20;;;;;;4997624;28;20449;-77
2022/01/24 17:23:10;;;;;;;3.33;2.07;;;7.70;68.30;;;;;;4997877;28;20449;-76
2022/01/24 17:25:37;;;;;;;3.00;2.00;;;7.70;68.30;;;;;;4997510;28;20523;-76
2022/01/24 17:28:06;;;;;;;3.47;2.20;;;7.60;68.40;;;;;;4997249;28;20495;-76
2022/01/24 17:30:33;;;;;;;3.50;2.03;;;7.50;68.70;;;;;;4997061;28;20871;-76
2022/01/24 17:33:00;;;;;;;4.30;2.87;;;7.40;69.00;;;;;;4997956;28;20452;-76
2022/01/24 17:35:28;;;;;;;3.40;2.30;;;7.40;69.30;;;;;;4996788;28;21008;-76
2022/01/24 17:37:57;;;;;;;4.53;2.17;;;7.40;69.30;;;;;;4997010;28;20554;-76
2022/01/24 17:40:25;;;;;;;3.00;2.10;;;7.40;69.20;;;;;;4997160;28;20529;-76
2022/01/24 17:42:54;;;;;;;4.37;2.30;;;7.40;69.50;;;;;;4996620;28;21002;-76
2022/01/24 17:45:22;;;;;;;3.47;2.47;;;7.40;69.40;;;;;;4996796;28;20472;-75
2022/01/24 17:47:49;;;;;;;3.47;2.20;;;7.30;69.50;;;;;;4998219;28;20445;-76
2022/01/24 17:50:17;;;;;;;3.30;2.30;;;7.30;69.60;;;;;;4998402;28;20819;-76
2022/01/24 17:52:45;;;;;;;3.30;2.33;;;7.20;69.40;;;;;;4998798;28;20453;-76
2022/01/24 17:55:14;;;;;;;3.83;2.93;;;7.20;69.40;;;;;;5000094;28;20501;-77
2022/01/24 17:57:41;;;;;;;3.40;2.40;;;7.20;69.60;;;;;;5000574;28;20492;-77
2022/01/24 18:00:11;;;;;;;3.57;2.50;;;7.20;69.50;;;;;;4997969;28;20456;-77
2022/01/24 18:02:40;;;;;;;3.80;1.90;;;7.10;69.60;;;;;;4998659;28;20828;-76
2022/01/24 18:05:08;;;;;;;3.50;2.47;;;7.10;69.70;;;;;;4998863;28;20515;-75